Time;durP1;ratioP1;P1;durP2;ratioP2;P2;SDS_P1;SDS_P2;PMS_P1;PMS_P2;Temp;Humidity;BMP_temperature;BMP_pressure;BME280_temperature;BME280_humidity;BME280_pressure;Samples;Min_cycle;Max_cycle;Signal;HPM_P1;HPM_P2
2022/10/31 05:00:57;;;;;;;17.33;10.50;;;12.50;99.90;;;;;;6049779;23;20947;-70
2022/10/31 05:03:24;;;;;;;19.33;10.67;;;12.50;99.90;;;;;;6089148;23;20234;-71
2022/10/31 05:05:51;;;;;;;23.00;12.20;;;12.50;99.90;;;;;;6093855;23;20456;-71
2022/10/31 05:08:18;;;;;;;17.37;10.90;;;12.50;99.90;;;;;;6091083;23;20449;-71
2022/10/31 05:10:44;;;;;;;19.70;12.23;;;12.50;99.90;;;;;;6093352;23;20446;-71
2022/10/31 05:13:11;;;;;;;20.30;9.90;;;12.40;99.90;;;;;;6092992;23;20427;-72
2022/10/31 05:15:38;;;;;;;15.90;10.43;;;12.40;99.90;;;;;;6093620;23;20552;-71
2022/10/31 05:18:06;;;;;;;19.23;11.50;;;12.40;99.90;;;;;;6093221;23;20450;-72
2022/10/31 05:20:33;;;;;;;17.93;9.47;;;12.40;99.90;;;;;;6093367;23;20789;-71
2022/10/31 05:23:00;;;;;;;28.37;12.80;;;12.40;99.90;;;;;;6090580;23;20427;-71
2022/10/31 05:25:29;;;;;;;17.20;9.20;;;12.40;99.90;;;;;;6093672;23;20433;-71
2022/10/31 05:27:57;;;;;;;16.70;12.07;;;12.40;99.90;;;;;;6093518;23;20752;-71
2022/10/31 05:30:25;;;;;;;20.03;10.47;;;12.40;99.90;;;;;;6093271;23;20792;-71
2022/10/31 05:32:52;;;;;;;17.47;9.93;;;12.50;99.90;;;;;;6092132;23;21258;-71
2022/10/31 05:35:22;;;;;;;21.60;13.03;;;12.50;99.90;;;;;;6093149;23;20452;-71
2022/10/31 05:37:49;;;;;;;22.10;9.40;;;12.50;99.90;;;;;;6092526;23;20769;-71
2022/10/31 05:40:17;;;;;;;18.63;11.73;;;12.60;99.90;;;;;;6090954;23;20745;-71
2022/10/31 05:42:44;;;;;;;21.53;12.50;;;12.70;99.90;;;;;;6091636;23;20434;-71
2022/10/31 05:45:13;;;;;;;23.27;11.20;;;12.60;99.90;;;;;;6093436;23;20422;-72
2022/10/31 05:47:40;;;;;;;24.77;10.97;;;12.70;99.90;;;;;;6093658;23;20492;-71
2022/10/31 05:50:08;;;;;;;15.60;8.83;;;12.70;99.90;;;;;;6093156;23;20429;-72
2022/10/31 05:52:36;;;;;;;21.33;11.20;;;12.70;99.90;;;;;;6092568;23;20451;-72
2022/10/31 05:55:03;;;;;;;17.87;8.80;;;12.70;99.90;;;;;;6093003;23;20824;-72
2022/10/31 05:57:30;;;;;;;19.17;11.37;;;12.70;99.90;;;;;;6092661;23;20427;-72
2022/10/31 05:59:57;;;;;;;19.03;10.67;;;12.80;99.90;;;;;;6093151;23;20427;-72
2022/10/31 06:02:23;;;;;;;19.10;9.80;;;12.80;99.90;;;;;;6092335;23;20985;-72
2022/10/31 06:04:50;;;;;;;16.30;9.40;;;12.80;99.90;;;;;;6091180;23;20426;-72
2022/10/31 06:07:17;;;;;;;21.00;9.87;;;12.80;99.90;;;;;;6092907;23;20438;-71
2022/10/31 06:09:45;;;;;;;21.63;10.10;;;12.80;99.90;;;;;;6091116;23;20443;-71
2022/10/31 06:12:11;;;;;;;18.93;10.37;;;12.80;99.90;;;;;;6094131;23;20953;-71
2022/10/31 06:14:38;;;;;;;18.53;12.20;;;12.80;99.90;;;;;;6094436;23;20427;-71
2022/10/31 06:17:05;;;;;;;10.20;7.57;;;12.80;99.90;;;;;;6095315;23;20933;-72
2022/10/31 06:19:31;;;;;;;25.13;11.10;;;12.80;99.90;;;;;;6094042;23;20944;-72
2022/10/31 06:21:58;;;;;;;10.60;8.90;;;12.80;99.90;;;;;;6094843;23;20814;-72
2022/10/31 06:24:25;;;;;;;18.13;10.13;;;12.80;99.90;;;;;;6093886;23;20949;-72
2022/10/31 06:26:53;;;;;;;13.90;8.40;;;12.80;99.90;;;;;;6094683;23;20811;-72
2022/10/31 06:29:19;;;;;;;11.77;8.70;;;12.80;99.90;;;;;;6095730;23;20431;-72
2022/10/31 06:31:46;;;;;;;13.97;10.20;;;12.80;99.90;;;;;;6104232;23;20454;-72
2022/10/31 06:34:13;;;;;;;11.90;10.33;;;12.80;99.90;;;;;;6093657;23;20514;-73
2022/10/31 06:36:39;;;;;;;17.47;9.33;;;12.80;99.90;;;;;;6094851;23;20456;-73
2022/10/31 06:39:06;;;;;;;19.90;8.83;;;12.90;99.90;;;;;;6094967;23;20434;-73
2022/10/31 06:41:33;;;;;;;13.17;7.07;;;12.90;99.90;;;;;;6095205;23;20611;-72
2022/10/31 06:44:01;;;;;;;15.23;8.33;;;12.90;99.90;;;;;;6094675;23;20434;-72
2022/10/31 06:46:27;;;;;;;20.03;8.87;;;12.90;99.90;;;;;;6095235;23;20422;-72
2022/10/31 06:48:54;;;;;;;15.53;8.53;;;12.90;99.90;;;;;;6095288;23;20435;-72
2022/10/31 06:51:21;;;;;;;17.27;9.23;;;12.90;99.90;;;;;;6093918;23;20448;-72
2022/10/31 06:53:47;;;;;;;14.77;8.23;;;13.00;99.90;;;;;;6093633;23;20437;-72
2022/10/31 06:56:14;;;;;;;13.83;9.20;;;13.00;99.90;;;;;;6094351;23;20454;-72
2022/10/31 06:58:41;;;;;;;19.47;9.50;;;13.00;99.90;;;;;;6095509;23;20427;-71
2022/10/31 07:01:09;;;;;;;15.80;9.27;;;13.10;99.90;;;;;;6093433;23;20463;-71
2022/10/31 07:03:36;;;;;;;14.90;9.70;;;13.10;99.90;;;;;;6094193;23;20880;-72
2022/10/31 07:06:03;;;;;;;19.50;7.53;;;13.10;99.90;;;;;;6094394;23;20795;-72
2022/10/31 07:08:29;;;;;;;8.47;7.00;;;13.10;99.90;;;;;;6093364;23;20897;-73
2022/10/31 07:10:57;;;;;;;15.60;9.67;;;13.10;99.90;;;;;;6094912;23;20474;-71
2022/10/31 07:13:25;;;;;;;12.47;7.60;;;13.10;99.90;;;;;;6094171;23;20434;-72
2022/10/31 07:15:53;;;;;;;13.70;9.83;;;13.20;99.90;;;;;;6094746;23;20447;-74
2022/10/31 07:18:22;;;;;;;16.30;7.30;;;13.20;99.90;;;;;;6095412;23;20434;-74
2022/10/31 07:20:49;;;;;;;18.73;8.60;;;13.30;99.90;;;;;;6094311;23;20958;-73
2022/10/31 07:23:16;;;;;;;14.70;8.40;;;13.30;99.90;;;;;;6092589;23;20438;-73
2022/10/31 07:25:43;;;;;;;12.83;6.40;;;13.30;99.90;;;;;;6094493;23;20446;-73
2022/10/31 07:28:10;;;;;;;17.50;8.87;;;13.30;99.90;;;;;;6094895;23;20432;-73
2022/10/31 07:30:38;;;;;;;11.03;6.43;;;13.40;99.90;;;;;;6094011;23;20447;-73
2022/10/31 07:33:05;;;;;;;15.03;6.93;;;13.40;99.90;;;;;;6094521;23;20435;-72
2022/10/31 07:35:34;;;;;;;9.70;6.77;;;13.40;99.90;;;;;;6094227;23;20768;-72
2022/10/31 07:38:08;;;;;;;13.37;6.83;;;13.50;99.90;;;;;;6093216;23;20565;-72
2022/10/31 07:40:35;;;;;;;7.23;5.87;;;13.50;99.90;;;;;;6094482;23;20453;-73
2022/10/31 07:43:01;;;;;;;14.27;6.97;;;13.60;99.90;;;;;;6093723;23;20434;-73
2022/10/31 07:45:28;;;;;;;12.40;7.20;;;13.60;99.90;;;;;;6093245;23;20432;-72
2022/10/31 07:47:55;;;;;;;10.80;5.80;;;13.60;99.90;;;;;;6094523;23;20435;-73
2022/10/31 07:50:24;;;;;;;10.30;7.33;;;13.60;99.90;;;;;;6093654;23;20454;-72
2022/10/31 07:53:00;;;;;;;8.40;6.63;;;13.70;99.90;;;;;;6093360;23;20950;-72
2022/10/31 07:55:27;;;;;;;19.43;6.43;;;13.70;99.90;;;;;;6094222;23;20945;-72
2022/10/31 07:57:58;;;;;;;7.53;6.53;;;13.70;99.90;;;;;;6094837;23;20480;-72
2022/10/31 08:00:25;;;;;;;13.53;7.00;;;13.70;99.90;;;;;;6093945;23;20450;-73
2022/10/31 08:02:58;;;;;;;8.10;6.00;;;13.80;99.90;;;;;;6093632;23;20648;-72
2022/10/31 08:05:25;;;;;;;11.77;6.43;;;13.80;99.90;;;;;;6091912;23;20404;-73
2022/10/31 08:07:52;;;;;;;10.03;6.43;;;13.80;99.90;;;;;;6093050;23;20524;-73
2022/10/31 08:10:20;;;;;;;19.90;6.67;;;13.80;99.90;;;;;;6093532;23;20421;-73
2022/10/31 08:12:47;;;;;;;9.70;5.40;;;13.90;99.90;;;;;;6093660;23;20424;-73
2022/10/31 08:15:14;;;;;;;9.27;5.43;;;14.00;99.90;;;;;;6093649;23;20428;-73
2022/10/31 08:17:41;;;;;;;8.43;5.20;;;14.00;99.90;;;;;;6094455;23;20499;-73
2022/10/31 08:20:08;;;;;;;5.43;4.93;;;14.00;99.90;;;;;;6093162;23;20432;-73
2022/10/31 08:22:35;;;;;;;10.23;5.93;;;14.00;99.90;;;;;;6091539;23;20517;-73
2022/10/31 08:25:02;;;;;;;6.97;4.90;;;14.10;99.90;;;;;;6093840;23;20721;-74
2022/10/31 08:27:30;;;;;;;14.10;6.77;;;14.10;99.90;;;;;;6094503;23;20431;-73
2022/10/31 08:29:56;;;;;;;9.63;6.07;;;14.20;99.90;;;;;;6093858;23;20752;-73
2022/10/31 08:32:23;;;;;;;10.43;6.10;;;14.20;99.90;;;;;;6093450;23;20445;-73
2022/10/31 08:34:50;;;;;;;13.33;6.50;;;14.30;99.90;;;;;;6093784;23;20424;-74
2022/10/31 08:37:19;;;;;;;15.10;6.17;;;14.40;99.90;;;;;;6092870;23;20481;-73
2022/10/31 08:39:46;;;;;;;5.87;4.77;;;14.50;99.90;;;;;;6094178;23;20453;-73
2022/10/31 08:42:13;;;;;;;7.77;5.33;;;14.50;99.90;;;;;;6094410;23;20563;-73
2022/10/31 08:44:41;;;;;;;13.10;7.07;;;14.60;99.90;;;;;;6094172;23;20539;-73
2022/10/31 08:47:07;;;;;;;10.27;6.17;;;14.60;99.90;;;;;;6094628;23;20428;-73
2022/10/31 08:49:34;;;;;;;6.17;4.10;;;14.60;99.90;;;;;;6094225;23;20433;-73
2022/10/31 08:52:01;;;;;;;8.87;5.10;;;14.60;99.90;;;;;;6093694;23;20510;-73
2022/10/31 08:54:28;;;;;;;9.97;5.30;;;14.70;99.90;;;;;;6091873;23;20433;-73
2022/10/31 08:56:55;;;;;;;7.87;4.30;;;14.70;99.90;;;;;;6094054;23;20444;-73
2022/10/31 08:59:22;;;;;;;6.20;4.97;;;14.80;99.90;;;;;;6093245;23;20761;-73
2022/10/31 09:01:50;;;;;;;7.93;5.43;;;14.90;99.90;;;;;;6092132;23;20837;-73
2022/10/31 09:04:17;;;;;;;11.93;6.50;;;14.90;99.90;;;;;;6093387;23;20427;-73
2022/10/31 09:06:44;;;;;;;7.33;4.33;;;15.00;99.90;;;;;;6092388;23;20434;-73
2022/10/31 09:09:10;;;;;;;6.83;4.63;;;15.00;99.90;;;;;;6090339;23;20437;-72
2022/10/31 09:11:37;;;;;;;10.00;6.40;;;15.00;99.90;;;;;;6092781;23;20726;-72
2022/10/31 09:14:04;;;;;;;4.83;4.43;;;15.00;99.90;;;;;;6092550;23;20439;-73
2022/10/31 09:16:30;;;;;;;12.27;6.90;;;15.00;99.90;;;;;;6093312;23;20454;-73
2022/10/31 09:18:58;;;;;;;6.43;4.53;;;14.90;99.90;;;;;;6092478;23;20422;-73
2022/10/31 09:21:25;;;;;;;5.67;5.10;;;14.90;99.90;;;;;;6092688;23;20444;-74
2022/10/31 09:23:53;;;;;;;7.93;4.60;;;14.90;99.90;;;;;;6090659;23;20427;-73
2022/10/31 09:26:21;;;;;;;6.67;6.17;;;14.90;99.90;;;;;;6093478;23;20468;-73
2022/10/31 09:28:47;;;;;;;5.17;4.77;;;14.90;99.90;;;;;;6092852;23;20430;-73
2022/10/31 09:31:14;;;;;;;7.90;5.40;;;14.90;99.90;;;;;;6093842;23;20453;-73
2022/10/31 09:33:41;;;;;;;8.73;4.37;;;14.90;99.90;;;;;;6093020;23;20539;-73
2022/10/31 09:36:10;;;;;;;3.67;3.33;;;15.00;99.90;;;;;;6093377;23;20454;-74
2022/10/31 09:38:36;;;;;;;5.47;4.47;;;14.90;99.90;;;;;;6102053;23;20424;-73
2022/10/31 09:41:12;;;;;;;3.47;3.13;;;14.90;99.90;;;;;;6092576;23;20456;-73
2022/10/31 09:43:50;;;;;;;10.07;4.13;;;14.80;99.90;;;;;;6091392;23;20421;-73
2022/10/31 09:46:26;;;;;;;7.50;4.77;;;14.70;99.90;;;;;;6092601;23;20406;-73
2022/10/31 09:49:08;;;;;;;7.43;4.00;;;14.70;99.90;;;;;;6092199;23;20431;-73
2022/10/31 09:51:40;;;;;;;4.10;3.70;;;14.70;99.90;;;;;;6093491;23;20452;-73
2022/10/31 09:54:13;;;;;;;6.53;3.37;;;14.80;99.90;;;;;;6092001;23;20405;-74
2022/10/31 09:56:39;;;;;;;5.60;3.07;;;14.80;99.90;;;;;;6093162;23;20433;-73
2022/10/31 09:59:12;;;;;;;7.10;4.33;;;14.80;99.90;;;;;;6092378;23;20904;-73
2022/10/31 10:01:48;;;;;;;7.37;5.20;;;14.80;99.90;;;;;;6092716;23;20939;-73
2022/10/31 10:04:30;;;;;;;3.90;3.43;;;14.90;99.90;;;;;;6092303;23;20424;-73
2022/10/31 10:07:01;;;;;;;4.47;4.13;;;15.00;99.90;;;;;;6093633;23;20414;-73
2022/10/31 10:09:28;;;;;;;4.17;3.80;;;15.10;99.90;;;;;;6090442;23;20433;-74
2022/10/31 10:12:05;;;;;;;10.03;5.23;;;15.20;99.90;;;;;;6092532;23;20454;-74
2022/10/31 10:14:44;;;;;;;4.87;4.57;;;15.30;99.90;;;;;;6092128;23;20422;-74
2022/10/31 10:17:20;;;;;;;5.00;3.63;;;15.30;99.90;;;;;;6093836;23;20462;-73
2022/10/31 10:19:58;;;;;;;9.10;4.47;;;15.30;99.90;;;;;;6093317;23;20416;-74
2022/10/31 10:22:43;;;;;;;3.33;3.03;;;15.40;99.90;;;;;;6093641;23;20586;-74
2022/10/31 10:25:16;;;;;;;4.17;3.60;;;15.50;99.90;;;;;;6093933;23;20487;-74
2022/10/31 10:27:51;;;;;;;4.23;3.83;;;15.60;99.90;;;;;;6093605;23;20486;-73
2022/10/31 10:30:20;;;;;;;3.47;3.10;;;15.70;99.90;;;;;;6093529;23;20470;-74
2022/10/31 10:32:51;;;;;;;4.00;3.33;;;15.80;99.90;;;;;;6092871;23;20430;-73
2022/10/31 10:35:24;;;;;;;6.90;2.30;;;15.90;99.90;;;;;;6093923;23;20426;-73
2022/10/31 10:37:57;;;;;;;2.47;2.37;;;15.90;99.90;;;;;;6090578;23;20447;-73
2022/10/31 10:40:26;;;;;;;3.43;3.23;;;15.90;99.90;;;;;;6092828;23;20755;-74
2022/10/31 10:49:03;;;;;;;3.13;2.57;;;15.70;99.90;;;;;;6102715;23;20450;-73
2022/10/31 10:51:39;;;;;;;2.93;2.73;;;15.70;99.90;;;;;;6093391;23;20454;-74
2022/10/31 10:54:22;;;;;;;3.73;2.50;;;15.90;99.90;;;;;;6091585;23;20417;-74
2022/10/31 10:57:00;;;;;;;2.70;2.50;;;16.00;99.90;;;;;;6090723;23;20435;-72
2022/10/31 10:59:29;;;;;;;3.93;3.00;;;16.10;99.90;;;;;;6094881;23;20749;-72
2022/10/31 11:01:55;;;;;;;6.37;3.27;;;16.10;99.90;;;;;;6093761;23;20465;-73
2022/10/31 11:04:30;;;;;;;3.70;2.43;;;16.10;99.90;;;;;;6094134;23;20430;-73
2022/10/31 11:07:01;;;;;;;2.50;1.87;;;16.10;99.90;;;;;;6093986;23;20408;-73
2022/10/31 11:09:30;;;;;;;2.83;2.63;;;16.00;99.90;;;;;;6093477;23;20427;-73
2022/10/31 11:11:58;;;;;;;1.93;1.93;;;16.00;99.90;;;;;;6094303;23;20446;-73
2022/10/31 11:14:25;;;;;;;3.00;2.83;;;15.90;99.90;;;;;;6093878;23;20435;-71
2022/10/31 11:16:55;;;;;;;2.73;2.63;;;15.90;99.90;;;;;;6094521;23;20466;-72
2022/10/31 11:19:26;;;;;;;4.87;2.57;;;16.00;99.90;;;;;;6093317;23;20410;-73
2022/10/31 11:21:53;;;;;;;4.50;3.80;;;16.00;99.90;;;;;;6095103;23;20465;-73
2022/10/31 11:24:21;;;;;;;2.33;2.23;;;16.00;99.90;;;;;;6092978;23;20437;-72
2022/10/31 11:26:51;;;;;;;2.20;2.10;;;16.00;99.90;;;;;;6095419;23;20428;-72
2022/10/31 11:29:21;;;;;;;2.53;2.40;;;16.00;99.90;;;;;;6094556;23;20426;-72
2022/10/31 11:31:51;;;;;;;2.40;2.30;;;15.90;99.90;;;;;;6094916;23;20456;-72
2022/10/31 11:34:27;;;;;;;8.63;2.53;;;15.80;99.90;;;;;;6094523;23;20760;-72
2022/10/31 11:36:55;;;;;;;2.23;2.13;;;15.90;99.90;;;;;;6095478;23;20704;-72
2022/10/31 11:39:24;;;;;;;1.97;1.97;;;15.80;99.90;;;;;;6094554;23;20473;-72
2022/10/31 11:41:53;;;;;;;1.93;1.83;;;15.80;99.90;;;;;;6094910;23;20786;-73
2022/10/31 11:44:23;;;;;;;2.27;2.20;;;15.80;99.90;;;;;;6094216;23;20737;-73
2022/10/31 11:46:52;;;;;;;4.40;2.70;;;15.70;99.90;;;;;;6093290;23;20429;-73
2022/10/31 11:49:21;;;;;;;2.47;2.27;;;15.80;99.90;;;;;;6093768;23;20449;-73
2022/10/31 11:51:51;;;;;;;2.80;2.70;;;15.90;99.90;;;;;;6093917;23;20461;-73
2022/10/31 11:54:23;;;;;;;3.20;2.90;;;16.00;99.90;;;;;;6091856;23;20411;-73
2022/10/31 11:56:49;;;;;;;2.67;2.47;;;16.00;99.90;;;;;;6093847;23;20445;-72
2022/10/31 11:59:24;;;;;;;2.80;2.60;;;16.10;99.90;;;;;;6094798;23;20753;-73
2022/10/31 12:01:53;;;;;;;5.67;2.03;;;16.20;99.90;;;;;;6093640;23;20453;-72
2022/10/31 12:04:28;;;;;;;1.43;1.43;;;16.20;99.90;;;;;;6092964;23;20458;-69
2022/10/31 12:06:55;;;;;;;2.87;2.77;;;16.10;99.90;;;;;;6094683;23;20889;-69
2022/10/31 12:09:24;;;;;;;3.87;2.77;;;16.10;99.90;;;;;;6093065;23;20448;-69
2022/10/31 12:12:26;;;;;;;3.20;3.00;;;16.10;99.90;;;;;;6094870;23;20430;-69
2022/10/31 12:15:05;;;;;;;1.57;1.50;;;16.10;99.90;;;;;;6025767;23;20445;-69
2022/10/31 12:17:40;;;;;;;1.80;1.70;;;16.00;99.90;;;;;;6094628;23;20434;-69
2022/10/31 12:20:20;;;;;;;2.80;2.60;;;15.90;99.90;;;;;;6094879;23;20417;-70
2022/10/31 12:22:53;;;;;;;2.23;2.13;;;15.90;99.90;;;;;;6092223;23;20410;-70
2022/10/31 12:25:35;;;;;;;2.27;2.17;;;15.80;99.90;;;;;;6094645;23;20525;-70
2022/10/31 12:28:23;;;;;;;1.90;1.63;;;15.80;99.90;;;;;;6094959;23;20406;-70
2022/10/31 12:31:04;;;;;;;3.40;2.80;;;15.90;99.90;;;;;;6095109;23;20472;-70
2022/10/31 12:33:45;;;;;;;1.90;1.80;;;15.90;99.90;;;;;;6092283;23;20417;-70
2022/10/31 12:36:27;;;;;;;1.90;1.80;;;15.90;99.90;;;;;;6094831;23;20415;-70
2022/10/31 12:39:15;;;;;;;3.93;2.07;;;16.00;99.90;;;;;;6093428;23;20418;-70
2022/10/31 12:41:47;;;;;;;1.93;1.83;;;16.00;99.90;;;;;;6090197;23;20436;-70
2022/10/31 12:44:41;;;;;;;4.63;2.40;;;16.10;99.90;;;;;;6093694;23;20439;-70
2022/10/31 12:47:29;;;;;;;1.20;1.20;;;16.10;99.90;;;;;;6093988;23;20417;-70
2022/10/31 12:50:03;;;;;;;4.23;1.73;;;16.10;99.90;;;;;;6094461;23;20410;-70
2022/10/31 12:52:43;;;;;;;1.80;1.60;;;16.10;99.90;;;;;;6094040;23;20715;-70
2022/10/31 12:55:32;;;;;;;1.40;1.40;;;16.10;99.90;;;;;;6093802;23;20767;-69
2022/10/31 12:58:04;;;;;;;1.30;1.30;;;16.00;99.90;;;;;;6093909;23;20472;-69
2022/10/31 13:00:33;;;;;;;3.23;1.30;;;16.00;99.90;;;;;;6094764;23;20411;-68
2022/10/31 13:03:10;;;;;;;2.17;2.07;;;16.00;99.90;;;;;;6093284;23;20444;-70
2022/10/31 13:05:41;;;;;;;1.67;1.57;;;16.10;99.90;;;;;;6094103;23;20452;-70
2022/10/31 13:08:11;;;;;;;6.83;1.80;;;16.00;99.90;;;;;;6093846;23;20406;-70
2022/10/31 13:10:44;;;;;;;1.97;1.97;;;16.00;99.90;;;;;;6093999;23;20427;-70
2022/10/31 13:13:20;;;;;;;1.57;1.53;;;15.90;99.90;;;;;;6102800;23;20413;-70
2022/10/31 13:15:51;;;;;;;2.10;2.00;;;15.80;99.90;;;;;;6093862;23;20448;-70
2022/10/31 13:18:27;;;;;;;2.60;2.50;;;15.80;99.90;;;;;;6093298;23;20470;-70
2022/10/31 13:20:55;;;;;;;1.97;1.97;;;15.70;99.90;;;;;;6094190;23;20412;-70
2022/10/31 13:23:28;;;;;;;2.23;2.03;;;15.60;99.90;;;;;;6092791;23;20509;-70
2022/10/31 13:25:56;;;;;;;9.83;2.23;;;15.60;99.90;;;;;;6093522;23;20496;-70
2022/10/31 13:28:30;;;;;;;1.77;1.67;;;15.60;99.90;;;;;;6093117;23;20424;-69
2022/10/31 13:30:57;;;;;;;2.80;2.60;;;15.70;99.90;;;;;;6094251;23;20409;-70
2022/10/31 13:33:29;;;;;;;2.93;1.90;;;15.70;99.90;;;;;;6093583;23;20436;-69
2022/10/31 13:36:17;;;;;;;2.30;2.20;;;15.60;99.90;;;;;;6094018;23;20420;-69
2022/10/31 13:38:52;;;;;;;2.43;2.23;;;15.60;99.90;;;;;;6092459;23;20524;-70
2022/10/31 13:41:33;;;;;;;2.83;2.60;;;15.50;99.90;;;;;;6093894;23;20459;-68
2022/10/31 13:44:03;;;;;;;1.53;1.53;;;15.40;99.90;;;;;;6092572;23;20474;-70
2022/10/31 13:46:38;;;;;;;2.03;1.93;;;15.40;99.90;;;;;;6093296;23;20424;-69
2022/10/31 13:49:25;;;;;;;3.80;2.33;;;15.40;99.90;;;;;;6093433;23;20542;-70
2022/10/31 13:51:52;;;;;;;4.20;2.17;;;15.40;99.90;;;;;;6094575;23;20416;-70
2022/10/31 13:54:24;;;;;;;2.53;2.33;;;15.30;99.90;;;;;;6092089;23;20471;-70
2022/10/31 13:56:52;;;;;;;3.00;2.80;;;15.20;99.90;;;;;;6094303;23;20448;-69
2022/10/31 13:59:22;;;;;;;3.77;2.63;;;15.20;99.90;;;;;;6093475;23;20427;-69
2022/10/31 14:01:52;;;;;;;2.23;2.17;;;15.10;99.90;;;;;;6095362;23;20432;-69
2022/10/31 14:04:22;;;;;;;2.70;2.50;;;15.10;99.90;;;;;;6093323;23;20456;-69
2022/10/31 14:06:57;;;;;;;3.47;2.33;;;15.00;99.90;;;;;;6093421;23;20415;-70
2022/10/31 14:09:29;;;;;;;2.23;2.17;;;15.00;99.90;;;;;;6093104;23;20502;-70
2022/10/31 14:11:58;;;;;;;2.00;1.90;;;15.00;99.90;;;;;;6094424;23;20408;-70
2022/10/31 14:14:31;;;;;;;2.60;2.40;;;15.00;99.90;;;;;;6092554;23;20774;-69
2022/10/31 14:16:59;;;;;;;2.43;1.90;;;15.00;99.90;;;;;;6093865;23;20412;-70
2022/10/31 14:19:27;;;;;;;2.37;2.27;;;15.00;99.90;;;;;;6094484;23;20526;-69
2022/10/31 14:21:54;;;;;;;9.37;4.37;;;15.00;99.90;;;;;;6093902;23;20454;-70
2022/10/31 14:24:37;;;;;;;2.60;2.50;;;15.00;99.90;;;;;;6092010;23;20482;-69
2022/10/31 14:27:20;;;;;;;2.07;2.07;;;15.00;99.90;;;;;;6093384;23;20411;-69
2022/10/31 14:29:47;;;;;;;2.03;1.93;;;15.00;99.90;;;;;;6092536;23;20432;-70
2022/10/31 14:32:21;;;;;;;3.43;2.90;;;14.90;99.90;;;;;;6093960;23;20450;-69
2022/10/31 14:34:55;;;;;;;5.00;3.07;;;14.90;99.90;;;;;;6094873;23;20453;-69
2022/10/31 14:37:41;;;;;;;2.27;2.17;;;14.90;99.90;;;;;;6095573;23;20459;-69
2022/10/31 14:40:19;;;;;;;2.50;2.30;;;14.90;99.90;;;;;;6095533;23;20887;-69
2022/10/31 14:43:08;;;;;;;2.67;2.40;;;14.90;99.90;;;;;;6094935;23;20418;-69
2022/10/31 14:45:42;;;;;;;6.47;2.93;;;14.80;99.90;;;;;;6094947;23;20981;-68
2022/10/31 14:48:23;;;;;;;3.47;2.53;;;14.80;99.90;;;;;;6095368;23;20405;-69
2022/10/31 14:50:52;;;;;;;3.77;2.87;;;14.80;99.90;;;;;;6095882;23;20412;-68
2022/10/31 14:53:24;;;;;;;2.60;2.40;;;14.70;99.90;;;;;;6093959;23;20428;-68
2022/10/31 14:55:54;;;;;;;5.47;2.83;;;14.60;99.90;;;;;;6095456;23;20412;-69
2022/10/31 14:58:24;;;;;;;3.47;3.27;;;14.60;99.90;;;;;;6095053;23;20448;-69
2022/10/31 15:00:55;;;;;;;6.70;4.03;;;14.50;99.90;;;;;;6094928;23;20427;-70
2022/10/31 15:03:27;;;;;;;4.90;2.93;;;14.50;99.90;;;;;;6094317;23;20527;-70
2022/10/31 15:05:57;;;;;;;5.40;3.20;;;14.40;99.90;;;;;;6094493;23;20941;-68
2022/10/31 15:08:34;;;;;;;3.97;2.43;;;14.30;99.90;;;;;;6094364;23;20410;-68
2022/10/31 15:11:10;;;;;;;4.47;3.37;;;14.30;99.90;;;;;;6095331;23;20413;-69
2022/10/31 15:13:43;;;;;;;5.87;3.30;;;14.20;99.90;;;;;;6094445;23;20954;-68
2022/10/31 15:16:12;;;;;;;3.93;3.47;;;14.20;99.90;;;;;;6098011;23;20466;-69
2022/10/31 15:18:48;;;;;;;2.20;2.20;;;14.10;99.90;;;;;;6108914;23;20507;-68
2022/10/31 15:21:18;;;;;;;5.20;3.90;;;14.00;99.90;;;;;;6113860;23;20415;-69
2022/10/31 15:23:45;;;;;;;3.60;2.83;;;14.00;99.90;;;;;;6113762;23;20529;-69
2022/10/31 15:26:17;;;;;;;2.50;2.30;;;13.90;99.90;;;;;;6111457;23;20430;-69
2022/10/31 15:28:43;;;;;;;2.60;2.40;;;13.90;99.90;;;;;;6098612;23;20414;-70
2022/10/31 15:31:16;;;;;;;4.37;2.27;;;13.90;99.90;;;;;;6097870;23;20449;-69
2022/10/31 15:33:47;;;;;;;3.80;3.60;;;13.80;99.90;;;;;;6095036;23;20454;-69
2022/10/31 15:36:21;;;;;;;7.93;3.03;;;13.80;99.90;;;;;;6099155;23;20415;-69
2022/10/31 15:38:49;;;;;;;5.80;3.40;;;13.80;99.90;;;;;;6094280;23;20433;-68
2022/10/31 15:41:28;;;;;;;4.10;3.70;;;13.80;99.90;;;;;;6095308;23;20435;-68
2022/10/31 15:43:58;;;;;;;4.77;3.13;;;13.80;99.90;;;;;;6094821;23;20451;-68
2022/10/31 15:46:27;;;;;;;4.23;3.30;;;13.70;99.90;;;;;;6095328;23;20442;-69
2022/10/31 15:48:54;;;;;;;2.27;2.17;;;13.70;99.90;;;;;;6094405;23;20507;-69
2022/10/31 15:51:29;;;;;;;4.00;3.80;;;13.60;99.90;;;;;;6095231;23;20427;-69
2022/10/31 15:53:57;;;;;;;4.40;3.20;;;13.60;99.90;;;;;;6093026;23;20447;-69
2022/10/31 15:56:25;;;;;;;5.77;5.23;;;13.60;99.90;;;;;;6095059;23;20478;-69
2022/10/31 15:58:54;;;;;;;5.30;4.60;;;13.50;99.90;;;;;;6094552;23;20473;-68
2022/10/31 16:01:23;;;;;;;9.23;5.40;;;13.40;99.90;;;;;;6094845;23;20431;-69
2022/10/31 16:04:06;;;;;;;16.50;6.83;;;13.40;99.90;;;;;;6093916;23;20466;-69
2022/10/31 16:06:35;;;;;;;9.03;5.13;;;13.30;99.90;;;;;;6095142;23;20410;-69
2022/10/31 16:09:02;;;;;;;7.80;5.60;;;13.30;99.90;;;;;;6093199;23;20433;-69
2022/10/31 16:11:34;;;;;;;6.03;5.53;;;13.30;99.90;;;;;;6095115;23;21059;-69
2022/10/31 16:14:07;;;;;;;7.23;5.00;;;13.20;99.90;;;;;;6090339;23;20457;-69
2022/10/31 16:16:40;;;;;;;12.33;4.70;;;13.20;99.90;;;;;;6094569;23;20462;-69
2022/10/31 16:19:18;;;;;;;8.00;6.67;;;13.20;99.90;;;;;;6093939;23;20445;-69
2022/10/31 16:21:49;;;;;;;5.97;5.43;;;13.20;99.90;;;;;;6094761;23;20445;-69
2022/10/31 16:24:20;;;;;;;10.73;6.93;;;13.10;99.90;;;;;;6092866;23;20990;-69
2022/10/31 16:26:50;;;;;;;15.47;7.80;;;13.10;99.90;;;;;;6094187;23;20774;-70
2022/10/31 16:29:27;;;;;;;7.47;5.63;;;13.10;99.90;;;;;;6094712;23;20719;-70
2022/10/31 16:31:54;;;;;;;6.00;5.00;;;13.10;99.90;;;;;;6094718;23;20409;-69
2022/10/31 16:34:23;;;;;;;11.60;7.37;;;13.10;99.90;;;;;;6094311;23;20446;-70
2022/10/31 16:36:51;;;;;;;6.30;5.13;;;13.10;99.90;;;;;;6094098;23;20753;-70
2022/10/31 16:39:18;;;;;;;7.47;5.60;;;13.10;99.90;;;;;;6091878;23;20463;-71
2022/10/31 16:41:47;;;;;;;10.03;5.63;;;13.10;99.90;;;;;;6094148;23;20533;-70
2022/10/31 16:44:22;;;;;;;9.53;5.50;;;13.10;99.90;;;;;;6093159;23;20454;-69
2022/10/31 16:47:08;;;;;;;5.97;4.37;;;13.10;99.90;;;;;;6095000;23;20434;-70
2022/10/31 16:49:35;;;;;;;4.67;4.20;;;13.10;99.90;;;;;;6094034;23;20849;-70
2022/10/31 16:52:03;;;;;;;7.17;4.87;;;13.10;99.90;;;;;;6094896;23;20427;-70
2022/10/31 16:54:30;;;;;;;9.00;5.23;;;13.00;99.90;;;;;;6091911;23;20481;-70
2022/10/31 16:56:59;;;;;;;6.43;4.70;;;13.10;99.90;;;;;;6093595;23;20427;-69
2022/10/31 16:59:27;;;;;;;7.00;5.80;;;13.00;99.90;;;;;;6093421;23;20464;-70
2022/10/31 17:01:54;;;;;;;7.93;5.07;;;13.00;99.90;;;;;;6094495;23;20944;-70
2022/10/31 17:04:21;;;;;;;10.40;6.53;;;13.10;99.90;;;;;;6092584;23;20455;-69
2022/10/31 17:06:47;;;;;;;9.87;6.53;;;13.20;99.90;;;;;;6094297;23;20450;-70
2022/10/31 17:09:15;;;;;;;12.60;6.70;;;13.20;99.90;;;;;;6091819;23;20445;-68
2022/10/31 17:11:51;;;;;;;8.70;4.60;;;13.20;99.90;;;;;;6092573;23;20529;-70
2022/10/31 17:14:19;;;;;;;8.03;6.97;;;13.20;99.90;;;;;;6092037;23;20445;-71
2022/10/31 17:16:46;;;;;;;7.00;5.53;;;13.20;99.90;;;;;;6091778;23;20431;-69
2022/10/31 17:19:13;;;;;;;6.10;4.57;;;13.20;99.90;;;;;;6101314;23;20474;-70
2022/10/31 17:21:40;;;;;;;9.20;6.60;;;13.20;99.90;;;;;;6094504;23;20426;-70
2022/10/31 17:24:12;;;;;;;7.20;6.47;;;13.20;99.90;;;;;;6092105;23;21156;-69
2022/10/31 17:26:40;;;;;;;7.87;7.07;;;13.20;99.90;;;;;;6092061;23;20915;-69
2022/10/31 17:29:06;;;;;;;6.57;5.20;;;13.20;99.90;;;;;;6092117;23;20422;-69
2022/10/31 17:31:37;;;;;;;13.00;8.00;;;13.20;99.90;;;;;;6093591;23;20427;-69
2022/10/31 17:34:05;;;;;;;19.70;10.10;;;13.20;99.90;;;;;;6092975;23;20499;-69
2022/10/31 17:36:33;;;;;;;8.07;6.50;;;13.20;99.90;;;;;;6094152;23;20426;-68
2022/10/31 17:38:59;;;;;;;11.33;6.37;;;13.20;99.90;;;;;;6092168;23;20456;-69
2022/10/31 17:41:26;;;;;;;16.87;8.63;;;13.20;99.90;;;;;;6093340;23;20878;-69
2022/10/31 17:43:56;;;;;;;9.43;7.13;;;13.20;99.90;;;;;;6092523;23;20450;-69
2022/10/31 17:46:23;;;;;;;17.83;7.30;;;13.20;99.90;;;;;;6093581;23;20450;-69
2022/10/31 17:48:49;;;;;;;15.30;8.80;;;13.20;99.90;;;;;;6091671;23;21131;-68
2022/10/31 17:51:16;;;;;;;9.03;6.10;;;13.20;99.90;;;;;;6092769;23;20518;-68
2022/10/31 17:53:43;;;;;;;10.07;8.80;;;13.20;99.90;;;;;;6091627;23;20985;-69
2022/10/31 17:56:10;;;;;;;10.53;7.97;;;13.20;99.90;;;;;;6092896;23;20435;-67
2022/10/31 17:58:38;;;;;;;10.63;5.60;;;13.10;99.90;;;;;;6091481;23;20825;-69
2022/10/31 18:01:09;;;;;;;17.40;8.73;;;13.10;99.90;;;;;;6093483;23;20410;-68
2022/10/31 18:03:36;;;;;;;11.60;6.97;;;13.10;99.90;;;;;;6089823;23;20415;-69
2022/10/31 18:06:03;;;;;;;14.37;7.70;;;13.10;99.90;;;;;;6090885;23;20689;-69